Arlington, Kansas
Current Conditions -  °F | °C
As of 12:52 PM on Sunday 23 Nov 2014 (Local Time) from KHUT Reporting Station
Light Rain Light Rain  
Wind Chill: 39°   Ceiling: 2400
Heat Index: 48°   Visibility: 10mi
Dew Point: 39°   Wind: 30mph
Humidity: 71%   Direction: 350°N
Pressure: 29.44"   Gusts: 40mph
Location:  37.9°N, 98.18°W
Report Text: KHUT 231852Z 35026G35KT 10SM -RA OVC024 09/04 A2944 RMK AO2 PK WND 35035/1852 RAB18 SLP961 P0000 T00890039
Loading
Personal Weather Stations






























Interactive Weather Map New forecast layout! Learn more

10-Day Weather Forecast

Advertisements
Track Severe Weather on mobile